createdAt,value
2022-08-11T00:02:01.211Z,22.80
2022-08-11T00:04:37.150Z,22.70
2022-08-11T00:07:06.827Z,22.70
2022-08-11T00:09:40.143Z,22.70
2022-08-11T00:12:16.341Z,22.70
2022-08-11T00:14:44.512Z,22.60
2022-08-11T00:17:15.933Z,22.60
2022-08-11T00:20:13.672Z,22.60
2022-08-11T00:22:40.036Z,22.50
2022-08-11T00:25:13.960Z,22.50
2022-08-11T00:27:42.015Z,22.40
2022-08-11T00:30:12.262Z,22.40
2022-08-11T00:32:44.001Z,22.40
2022-08-11T00:35:55.215Z,22.40
2022-08-11T00:38:07.438Z,22.30
2022-08-11T00:40:45.428Z,22.30
2022-08-11T00:43:41.716Z,22.20
2022-08-11T00:46:35.433Z,22.20
2022-08-11T00:49:17.273Z,22.10
2022-08-11T00:52:18.723Z,22.10
2022-08-11T00:55:34.039Z,22.00
2022-08-11T00:58:26.399Z,22.00
2022-08-11T01:01:18.447Z,21.90
2022-08-11T01:04:17.485Z,21.90
2022-08-11T01:06:50.367Z,21.80
2022-08-11T01:09:44.717Z,21.80
2022-08-11T01:12:39.554Z,21.70
2022-08-11T01:15:37.833Z,21.60
2022-08-11T01:19:00.747Z,21.60
2022-08-11T01:22:23.717Z,21.50
2022-08-11T01:25:58.001Z,21.50
2022-08-11T01:29:28.124Z,21.40
2022-08-11T01:32:16.930Z,21.30
2022-08-11T01:35:12.033Z,21.30
2022-08-11T01:37:57.663Z,21.20
2022-08-11T01:40:57.294Z,21.20
2022-08-11T01:44:28.116Z,21.20
2022-08-11T01:47:52.942Z,21.10
2022-08-11T01:50:46.414Z,21.10
2022-08-11T01:53:35.621Z,21.10
2022-08-11T01:56:33.264Z,21.00
2022-08-11T01:59:12.280Z,20.90
2022-08-11T02:02:04.084Z,20.90
2022-08-11T02:05:03.219Z,20.90
2022-08-11T02:07:55.591Z,20.80
2022-08-11T02:11:35.355Z,20.70
2022-08-11T02:14:20.827Z,20.60
2022-08-11T02:16:53.768Z,20.50
2022-08-11T02:19:58.434Z,20.40
2022-08-11T02:22:54.457Z,20.30
2022-08-11T02:25:50.479Z,20.30
2022-08-11T04:11:20.181Z,18.50
2022-08-11T04:14:30.616Z,18.50
2022-08-11T04:17:35.668Z,18.40
2022-08-11T04:20:42.811Z,18.40
2022-08-11T04:24:37.065Z,18.40
2022-08-11T04:27:50.544Z,18.30
2022-08-11T04:30:28.439Z,18.30
2022-08-11T04:33:10.621Z,18.30
2022-08-11T04:36:10.218Z,18.30
2022-08-11T04:39:14.997Z,18.30
2022-08-11T04:42:32.717Z,18.30
2022-08-11T04:45:47.818Z,18.30
2022-08-11T04:48:56.419Z,18.40
2022-08-11T04:52:37.658Z,18.40
2022-08-11T04:56:01.930Z,18.40
2022-08-11T04:59:41.102Z,18.50
2022-08-11T05:02:40.946Z,18.60
2022-08-11T05:05:55.365Z,18.70
2022-08-11T05:08:51.107Z,18.80
2022-08-11T05:11:52.282Z,18.90
2022-08-11T05:14:58.124Z,18.90
2022-08-11T05:17:57.604Z,19.00
2022-08-11T05:20:45.852Z,19.10
2022-08-11T05:23:33.269Z,19.20
2022-08-11T05:26:46.736Z,19.30
2022-08-11T05:29:57.563Z,19.40
2022-08-11T05:32:46.423Z,19.50
2022-08-11T05:35:59.818Z,19.50
2022-08-11T05:38:31.469Z,19.60
2022-08-11T05:41:18.354Z,19.70
2022-08-11T05:44:19.890Z,19.80
2022-08-11T05:47:08.294Z,19.90
2022-08-11T05:49:56.611Z,20.00
2022-08-11T05:52:55.510Z,20.10
2022-08-11T05:55:54.590Z,20.20
2022-08-11T05:58:42.684Z,20.30
2022-08-11T06:01:14.170Z,20.40
2022-08-11T06:04:04.669Z,20.50
2022-08-11T06:06:32.544Z,20.60
2022-08-11T06:09:01.063Z,20.70
2022-08-11T06:11:43.059Z,20.80
2022-08-11T06:14:15.530Z,20.90
2022-08-11T06:16:48.596Z,21.00
2022-08-11T06:19:21.222Z,21.10
2022-08-11T06:21:48.876Z,21.20
2022-08-11T06:24:16.546Z,21.30
2022-08-11T06:29:54.826Z,21.50
2022-08-11T06:32:35.998Z,21.60
2022-08-11T06:35:23.661Z,21.70
2022-08-11T06:38:12.107Z,21.80
2022-08-11T06:41:11.941Z,21.90
2022-08-11T06:44:16.384Z,22.00
2022-08-11T06:46:50.902Z,22.00
2022-08-11T06:49:51.135Z,22.10
2022-08-11T06:52:34.625Z,22.30
2022-08-11T06:55:56.897Z,22.40
2022-08-11T06:58:50.915Z,22.50
2022-08-11T07:01:37.072Z,22.70
2022-08-11T07:04:10.432Z,22.80
2022-08-11T07:07:14.491Z,23.00
2022-08-11T07:10:37.786Z,23.10
2022-08-11T07:13:39.441Z,23.30
2022-08-11T07:16:19.298Z,23.50
2022-08-11T07:19:20.514Z,23.60
2022-08-11T07:22:07.919Z,23.70
2022-08-11T07:25:26.231Z,23.90
2022-08-11T07:28:40.333Z,24.10
2022-08-11T07:31:17.658Z,24.20
2022-08-11T07:34:08.334Z,24.30
2022-08-11T07:36:51.356Z,24.40
2022-08-11T07:39:24.527Z,24.50
2022-08-11T07:41:54.721Z,24.70
2022-08-11T07:44:30.723Z,24.90
2022-08-11T07:47:19.464Z,25.10
2022-08-11T07:50:09.502Z,25.30
2022-08-11T07:52:40.464Z,25.40
2022-08-11T07:55:13.426Z,25.60
2022-08-11T07:58:15.849Z,25.80
2022-08-11T08:01:21.753Z,26.00
2022-08-11T08:04:09.652Z,26.20
2022-08-11T08:06:56.886Z,26.40
2022-08-11T08:09:44.032Z,26.70
2022-08-11T08:12:31.825Z,27.00
2022-08-11T08:15:20.292Z,27.30
2022-08-11T08:18:09.650Z,27.50
2022-08-11T08:20:50.071Z,27.70
2022-08-11T08:23:33.675Z,27.90
2022-08-11T08:26:26.577Z,28.20
2022-08-11T08:29:28.554Z,28.30
2022-08-11T08:34:57.202Z,28.70
2022-08-11T08:37:46.134Z,28.90
2022-08-11T08:40:15.224Z,29.10
2022-08-11T08:42:56.308Z,29.40
2022-08-11T08:45:25.666Z,29.70
2022-08-11T08:48:08.332Z,29.80
2022-08-11T08:51:22.930Z,29.90
2022-08-11T08:53:58.559Z,30.10
2022-08-11T08:56:28.924Z,30.30
2022-08-11T08:59:00.943Z,30.60
2022-08-11T09:01:41.173Z,31.00
2022-08-11T09:04:12.232Z,31.30
2022-08-11T09:06:50.071Z,31.50
2022-08-11T09:09:21.403Z,31.80
2022-08-11T09:11:55.482Z,31.90
2022-08-11T09:14:52.672Z,32.10
2022-08-11T09:17:21.937Z,32.10
2022-08-11T09:19:58.662Z,32.10
2022-08-11T09:22:46.838Z,32.20
2022-08-11T09:25:34.242Z,32.30
2022-08-11T09:28:04.864Z,32.40
2022-08-11T09:30:32.672Z,32.30
2022-08-11T09:33:04.887Z,32.40
2022-08-11T09:35:36.851Z,32.60
2022-08-11T09:38:25.125Z,32.80
2022-08-11T09:40:57.121Z,33.00
2022-08-11T09:43:45.217Z,33.50
2022-08-11T09:46:13.523Z,33.70
2022-08-11T09:48:45.844Z,33.70
2022-08-11T09:51:15.407Z,33.90
2022-08-11T09:54:02.613Z,34.20
2022-08-11T09:56:49.814Z,34.50
2022-08-11T09:59:21.617Z,34.50
2022-08-11T10:01:57.940Z,34.60
2022-08-11T10:04:45.880Z,34.60
2022-08-11T10:07:19.431Z,34.60
2022-08-11T10:10:01.930Z,34.90
2022-08-11T10:12:48.471Z,35.20
2022-08-11T10:15:34.871Z,35.20
2022-08-11T10:18:37.528Z,35.20
2022-08-11T10:21:44.002Z,35.10
2022-08-11T10:24:31.143Z,35.20
2022-08-11T10:27:00.849Z,35.10
2022-08-11T10:29:58.227Z,35.20
2022-08-11T10:32:59.031Z,35.30
2022-08-11T10:35:32.544Z,35.50
2022-08-11T10:38:06.630Z,35.50
2022-08-11T10:40:40.440Z,35.20
2022-08-11T10:44:01.279Z,35.00
2022-08-11T10:46:27.049Z,35.00
2022-08-11T10:49:03.024Z,35.20
2022-08-11T10:52:04.356Z,35.50
2022-08-11T10:54:56.290Z,35.50
2022-08-11T10:58:05.093Z,35.60
2022-08-11T11:00:40.672Z,35.40
2022-08-11T11:03:22.851Z,35.60
2022-08-11T11:06:28.183Z,35.90
2022-08-11T11:09:07.062Z,36.00
2022-08-11T11:12:04.184Z,35.70
2022-08-11T11:14:58.245Z,35.80
2022-08-11T11:17:52.769Z,36.30
2022-08-11T11:20:36.612Z,36.40
2022-08-11T11:23:35.680Z,36.50
2022-08-11T11:26:28.032Z,36.70
2022-08-11T11:29:30.486Z,36.90
2022-08-11T11:32:18.015Z,37.20
2022-08-11T11:35:26.892Z,37.30
2022-08-11T11:38:04.062Z,37.30
2022-08-11T11:40:34.207Z,37.60
2022-08-11T11:43:02.338Z,37.50
2022-08-11T11:45:30.520Z,37.50
2022-08-11T11:48:01.044Z,37.40
2022-08-11T11:50:38.193Z,37.20
2022-08-11T11:53:10.879Z,37.10
2022-08-11T11:55:43.602Z,37.20
2022-08-11T11:58:55.518Z,37.10
2022-08-11T12:02:35.941Z,37.20
2022-08-11T12:05:10.364Z,37.30
2022-08-11T12:08:10.487Z,37.20
2022-08-11T12:11:02.271Z,37.30
2022-08-11T12:13:51.818Z,37.60
2022-08-11T12:16:33.910Z,37.70
2022-08-11T12:19:25.486Z,37.70
2022-08-11T12:22:14.417Z,37.90
2022-08-11T12:25:01.425Z,38.10
2022-08-11T12:27:31.272Z,37.80
2022-08-11T12:30:05.773Z,37.60
2022-08-11T12:32:38.466Z,37.80
2022-08-11T12:35:07.832Z,37.80
2022-08-11T12:37:47.051Z,37.60
2022-08-11T12:41:11.928Z,37.40
2022-08-11T12:43:56.894Z,37.20
2022-08-11T12:46:32.079Z,36.80
2022-08-11T12:49:27.083Z,37.10
2022-08-11T12:52:12.292Z,37.20
2022-08-11T12:55:03.757Z,36.80
2022-08-11T12:58:01.266Z,36.60
2022-08-11T13:00:48.832Z,37.00
2022-08-11T13:03:38.565Z,37.60
2022-08-11T13:06:07.188Z,38.10
2022-08-11T13:08:38.246Z,38.50
2022-08-11T13:11:55.991Z,38.50
2022-08-11T13:14:15.348Z,38.60
2022-08-11T13:17:04.345Z,38.60
2022-08-11T13:19:32.765Z,38.70
2022-08-11T13:22:02.295Z,38.80
2022-08-11T13:24:34.064Z,38.90
2022-08-11T13:27:02.732Z,38.70
2022-08-11T13:29:30.558Z,38.60
2022-08-11T13:32:02.114Z,38.50
2022-08-11T13:34:32.097Z,38.60
2022-08-11T13:37:05.301Z,38.70
2022-08-11T13:39:35.349Z,38.70
2022-08-11T13:42:05.436Z,38.80
2022-08-11T13:44:38.482Z,38.90
2022-08-11T13:47:09.592Z,39.00
2022-08-11T13:49:40.314Z,39.00
2022-08-11T13:52:15.928Z,38.70
2022-08-11T13:54:47.888Z,38.60
2022-08-11T13:58:08.205Z,38.70
2022-08-11T14:00:25.064Z,38.50
2022-08-11T14:02:57.423Z,38.20
2022-08-11T14:05:40.410Z,38.00
2022-08-11T14:08:32.472Z,38.10
2022-08-11T14:12:23.834Z,38.00
2022-08-11T14:14:25.720Z,37.70
2022-08-11T14:16:57.989Z,37.70
2022-08-11T14:19:28.288Z,37.80
2022-08-11T14:22:09.209Z,37.70
2022-08-11T14:24:49.734Z,37.80
2022-08-11T14:28:31.984Z,38.00
2022-08-11T14:30:27.449Z,38.30
2022-08-11T14:32:57.416Z,38.20
2022-08-11T14:35:28.764Z,38.20
2022-08-11T14:37:59.286Z,38.10
2022-08-11T14:40:45.609Z,38.20
2022-08-11T14:44:14.154Z,38.10
2022-08-11T14:46:38.375Z,38.10
2022-08-11T14:49:05.744Z,38.20
2022-08-11T14:51:34.324Z,38.20
2022-08-11T14:54:21.082Z,38.20
2022-08-11T14:56:48.542Z,38.20
2022-08-11T14:59:19.150Z,38.40
2022-08-11T15:02:04.947Z,38.40
2022-08-11T15:04:35.130Z,38.40
2022-08-11T15:07:03.864Z,38.30
2022-08-11T15:09:31.932Z,38.20
2022-08-11T15:12:31.150Z,38.20
2022-08-11T15:15:16.652Z,38.10
2022-08-11T15:17:46.018Z,38.00
2022-08-11T15:20:38.820Z,38.00
2022-08-11T15:23:24.790Z,38.00
2022-08-11T15:25:59.758Z,38.10
2022-08-11T15:28:49.955Z,38.00
2022-08-11T15:31:41.991Z,38.00
2022-08-11T15:34:39.098Z,37.80
2022-08-11T15:37:29.495Z,37.70
2022-08-11T15:40:36.785Z,37.60
2022-08-11T15:43:48.103Z,37.50
2022-08-11T15:46:30.516Z,37.50
2022-08-11T15:49:22.042Z,37.30
2022-08-11T15:52:10.153Z,37.00
2022-08-11T15:54:43.964Z,36.90
2022-08-11T15:57:39.418Z,36.90
2022-08-11T16:00:29.321Z,36.90
2022-08-11T16:03:20.065Z,36.90
2022-08-11T16:05:53.215Z,36.70
2022-08-11T16:08:26.768Z,36.60
2022-08-11T16:11:01.225Z,36.50
2022-08-11T16:13:32.937Z,36.40
2022-08-11T16:16:14.934Z,36.30
2022-08-11T16:18:56.560Z,36.20
2022-08-11T16:21:36.137Z,36.30
2022-08-11T16:26:30.613Z,36.20
2022-08-11T16:27:13.695Z,36.00
2022-08-11T16:29:45.550Z,35.80
2022-08-11T16:32:23.391Z,35.70
2022-08-11T16:35:26.221Z,35.60
2022-08-11T16:38:15.257Z,35.50
2022-08-11T16:40:44.974Z,35.40
2022-08-11T16:43:36.877Z,35.40
2022-08-11T16:46:25.773Z,35.20
2022-08-11T16:48:55.208Z,35.10
2022-08-11T16:51:23.234Z,35.00
2022-08-11T16:54:05.337Z,34.90
2022-08-11T16:56:43.549Z,34.80
2022-08-11T16:59:38.043Z,34.60
2022-08-11T17:02:35.589Z,34.60
2022-08-11T17:05:28.323Z,34.40
2022-08-11T17:08:19.375Z,34.20
2022-08-11T17:11:16.971Z,34.20
2022-08-11T17:13:52.236Z,34.00
2022-08-11T17:16:28.228Z,33.90
2022-08-11T17:19:02.323Z,33.80
2022-08-11T17:21:59.159Z,33.70
2022-08-11T17:24:28.492Z,33.50
2022-08-11T17:26:58.267Z,33.30
2022-08-11T17:29:54.779Z,33.20
2022-08-11T17:32:56.740Z,33.10
2022-08-11T17:35:33.172Z,32.90
2022-08-11T17:38:11.746Z,32.80
2022-08-11T17:41:03.409Z,32.70
2022-08-11T17:43:51.052Z,32.70
2022-08-11T17:46:38.011Z,32.50
2022-08-11T17:49:09.324Z,32.50
2022-08-11T17:51:58.349Z,32.40
2022-08-11T17:54:46.051Z,32.30
2022-08-11T17:57:33.898Z,32.20
2022-08-11T18:00:02.599Z,32.20
2022-08-11T18:03:07.327Z,32.10
2022-08-11T18:05:37.645Z,31.90
2022-08-11T18:08:28.794Z,31.90
2022-08-11T18:11:17.583Z,31.70
2022-08-11T18:14:28.886Z,31.70
2022-08-11T18:17:15.541Z,31.60
2022-08-11T18:20:01.113Z,31.50
2022-08-11T18:22:54.346Z,31.30
2022-08-11T18:25:46.006Z,31.30
2022-08-11T18:28:36.704Z,31.20
2022-08-11T18:31:26.594Z,31.10
2022-08-11T18:34:15.801Z,31.00
2022-08-11T18:37:39.400Z,30.90
2022-08-11T18:40:36.133Z,30.80
2022-08-11T18:43:27.850Z,30.70
2022-08-11T18:46:24.292Z,30.70
2022-08-11T18:49:27.263Z,30.50
2022-08-11T18:52:35.610Z,30.40
2022-08-11T18:55:26.316Z,30.30
2022-08-11T18:58:15.591Z,30.20
2022-08-11T19:01:05.058Z,30.10
2022-08-11T19:03:53.736Z,30.00
2022-08-11T19:06:43.258Z,29.90
2022-08-11T19:09:33.525Z,29.80
2022-08-11T19:12:22.669Z,29.60
2022-08-11T19:15:11.161Z,29.50
2022-08-11T19:18:03.757Z,29.40
2022-08-11T19:20:53.801Z,29.20
2022-08-11T19:23:51.219Z,29.10
2022-08-11T19:26:37.514Z,29.00
2022-08-11T19:30:04.986Z,28.90
2022-08-11T19:32:32.855Z,28.70
2022-08-11T19:35:21.983Z,28.60
2022-08-11T19:38:08.967Z,28.50
2022-08-11T19:40:58.764Z,28.30
2022-08-11T19:43:48.260Z,28.10
2022-08-11T19:46:42.770Z,28.00
2022-08-11T19:49:29.496Z,27.90
2022-08-11T19:52:17.646Z,27.80
2022-08-11T19:55:05.609Z,27.80
2022-08-11T19:57:54.606Z,27.70
2022-08-11T20:00:42.067Z,27.50
2022-08-11T20:03:32.366Z,27.50
2022-08-11T20:06:26.307Z,27.40
2022-08-11T20:09:18.898Z,27.20
2022-08-11T20:12:11.839Z,27.10
2022-08-11T20:15:01.554Z,27.00
2022-08-11T20:17:54.851Z,27.00
2022-08-11T20:20:44.244Z,26.90
2022-08-11T20:23:35.224Z,26.80
2022-08-11T20:27:01.852Z,26.80
2022-08-11T20:29:45.208Z,26.80
2022-08-11T20:32:31.644Z,26.70
2022-08-11T20:35:23.315Z,26.60
2022-08-11T20:38:14.023Z,26.50
2022-08-11T20:41:01.216Z,26.50
2022-08-11T20:44:05.745Z,26.40
2022-08-11T20:47:00.889Z,26.30
2022-08-11T20:49:53.994Z,26.20
2022-08-11T20:52:47.988Z,26.20
2022-08-11T20:55:46.199Z,26.10
2022-08-11T21:01:52.061Z,26.00
2022-08-11T21:04:37.878Z,25.90
2022-08-11T21:07:42.458Z,25.70
2022-08-11T21:10:30.876Z,25.70
2022-08-11T21:13:26.820Z,25.60
2022-08-11T21:16:25.758Z,25.50
2022-08-11T21:20:00.033Z,25.50
2022-08-11T21:22:59.633Z,25.50
2022-08-11T21:26:01.440Z,25.40
2022-08-11T21:28:50.073Z,25.40
2022-08-11T21:31:37.178Z,25.30
2022-08-11T21:34:26.919Z,25.30
2022-08-11T21:37:13.044Z,25.30
2022-08-11T21:40:01.558Z,25.20
2022-08-11T21:42:51.327Z,25.20
2022-08-11T21:45:39.015Z,25.10
2022-08-11T21:48:27.743Z,25.00
2022-08-11T21:51:13.304Z,25.00
2022-08-11T21:53:59.582Z,25.00
2022-08-11T21:56:47.062Z,24.90
2022-08-11T21:59:42.490Z,24.90
2022-08-11T22:02:28.662Z,24.80
2022-08-11T22:05:15.483Z,24.80
2022-08-11T22:08:01.676Z,24.70
2022-08-11T22:10:47.565Z,24.70
2022-08-11T22:13:33.638Z,24.60
2022-08-11T22:16:19.566Z,24.60
2022-08-11T22:19:09.044Z,24.50
2022-08-11T22:22:03.056Z,24.50
2022-08-11T22:24:52.927Z,24.40
2022-08-11T22:27:39.657Z,24.40
2022-08-11T22:30:30.044Z,24.30
2022-08-11T22:33:26.971Z,24.30
2022-08-11T22:36:14.844Z,24.30
2022-08-11T22:39:04.526Z,24.20
2022-08-11T22:41:51.086Z,24.20
2022-08-11T22:44:38.095Z,24.20
2022-08-11T22:47:27.487Z,24.20
2022-08-11T22:50:26.856Z,24.10
2022-08-11T22:53:14.964Z,24.10
2022-08-11T22:56:00.649Z,24.00
2022-08-11T22:58:48.643Z,23.90
2022-08-11T23:01:36.126Z,23.80
2022-08-11T23:04:23.179Z,23.80
2022-08-11T23:07:09.525Z,23.70
2022-08-11T23:09:57.776Z,23.60
2022-08-11T23:12:43.523Z,23.50
2022-08-11T23:15:33.705Z,23.40
2022-08-11T23:18:24.430Z,23.30
2022-08-11T23:21:10.644Z,23.20
2022-08-11T23:23:57.170Z,23.20
2022-08-11T23:26:48.521Z,23.00
2022-08-11T23:29:35.360Z,23.00
2022-08-11T23:32:22.193Z,23.00
2022-08-11T23:35:38.444Z,22.90
2022-08-11T23:38:20.642Z,22.80
2022-08-11T23:41:06.243Z,22.80
2022-08-11T23:43:51.705Z,22.70
2022-08-11T23:46:40.147Z,22.70
2022-08-11T23:49:27.085Z,22.70
2022-08-11T23:52:14.473Z,22.70
2022-08-11T23:55:00.810Z,22.70
2022-08-11T23:57:48.802Z,22.70
